sensor_id;sensor_type;location;lat;lon;timestamp;pressure;altitude;pressure_sealevel;temperature;humidity
28428;BME280;15662;49.128;8.520;2023-04-20T00:00:46;100534.06;;;10.78;52.88
28428;BME280;15662;49.128;8.520;2023-04-20T00:03:14;100531.41;;;10.78;52.85
28428;BME280;15662;49.128;8.520;2023-04-20T00:05:42;100526.09;;;10.80;52.83
28428;BME280;15662;49.128;8.520;2023-04-20T00:08:10;100521.59;;;10.82;52.71
28428;BME280;15662;49.128;8.520;2023-04-20T00:10:37;100513.81;;;10.76;52.71
28428;BME280;15662;49.128;8.520;2023-04-20T00:13:05;100525.97;;;10.84;52.54
28428;BME280;15662;49.128;8.520;2023-04-20T00:15:33;100525.06;;;10.85;52.61
28428;BME280;15662;49.128;8.520;2023-04-20T00:18:01;100517.09;;;10.85;52.37
28428;BME280;15662;49.128;8.520;2023-04-20T00:20:28;100513.66;;;10.82;52.30
28428;BME280;15662;49.128;8.520;2023-04-20T00:22:56;100503.00;;;10.83;52.43
28428;BME280;15662;49.128;8.520;2023-04-20T00:25:24;100504.13;;;10.73;52.29
28428;BME280;15662;49.128;8.520;2023-04-20T00:27:52;100505.16;;;10.68;52.38
28428;BME280;15662;49.128;8.520;2023-04-20T00:30:20;100501.00;;;10.57;52.41
28428;BME280;15662;49.128;8.520;2023-04-20T00:32:47;100495.03;;;10.49;52.55
28428;BME280;15662;49.128;8.520;2023-04-20T00:35:15;100488.19;;;10.38;52.56
28428;BME280;15662;49.128;8.520;2023-04-20T00:37:44;100495.28;;;10.37;52.52
28428;BME280;15662;49.128;8.520;2023-04-20T00:40:12;100499.78;;;10.33;52.54
28428;BME280;15662;49.128;8.520;2023-04-20T00:42:39;100489.28;;;10.29;52.56
28428;BME280;15662;49.128;8.520;2023-04-20T00:45:08;100485.84;;;10.24;52.77
28428;BME280;15662;49.128;8.520;2023-04-20T00:47:37;100489.38;;;10.24;52.83
28428;BME280;15662;49.128;8.520;2023-04-20T00:50:06;100478.78;;;10.24;52.62
28428;BME280;15662;49.128;8.520;2023-04-20T00:52:34;100471.81;;;10.20;52.79
28428;BME280;15662;49.128;8.520;2023-04-20T00:55:03;100465.75;;;10.15;52.76
28428;BME280;15662;49.128;8.520;2023-04-20T00:57:32;100468.50;;;10.09;53.09
28428;BME280;15662;49.128;8.520;2023-04-20T01:00:00;100465.16;;;10.01;52.84
28428;BME280;15662;49.128;8.520;2023-04-20T01:02:29;100467.19;;;9.88;52.92
28428;BME280;15662;49.128;8.520;2023-04-20T01:04:58;100455.97;;;9.77;52.83
28428;BME280;15662;49.128;8.520;2023-04-20T01:07:26;100458.63;;;9.77;53.26
28428;BME280;15662;49.128;8.520;2023-04-20T01:09:54;100455.00;;;9.81;53.18
28428;BME280;15662;49.128;8.520;2023-04-20T01:12:21;100450.63;;;9.78;53.06
28428;BME280;15662;49.128;8.520;2023-04-20T01:14:49;100447.16;;;9.75;52.85
28428;BME280;15662;49.128;8.520;2023-04-20T01:17:19;100451.72;;;9.68;53.14
28428;BME280;15662;49.128;8.520;2023-04-20T01:19:47;100425.47;;;9.59;53.06
28428;BME280;15662;49.128;8.520;2023-04-20T01:22:19;100431.56;;;9.63;53.09
28428;BME280;15662;49.128;8.520;2023-04-20T01:24:47;100425.50;;;9.57;53.41
28428;BME280;15662;49.128;8.520;2023-04-20T01:27:15;100418.47;;;9.56;53.27
28428;BME280;15662;49.128;8.520;2023-04-20T01:29:44;100422.03;;;9.54;52.91
28428;BME280;15662;49.128;8.520;2023-04-20T01:32:12;100425.50;;;9.57;53.34
28428;BME280;15662;49.128;8.520;2023-04-20T01:34:40;100428.00;;;9.64;53.31
28428;BME280;15662;49.128;8.520;2023-04-20T01:37:08;100412.16;;;9.62;52.81
28428;BME280;15662;49.128;8.520;2023-04-20T01:39:39;100418.28;;;9.64;53.14
28428;BME280;15662;49.128;8.520;2023-04-20T01:42:07;100411.25;;;9.63;53.33
28428;BME280;15662;49.128;8.520;2023-04-20T01:44:35;100413.94;;;9.62;53.15
28428;BME280;15662;49.128;8.520;2023-04-20T01:47:03;100405.25;;;9.56;53.22
28428;BME280;15662;49.128;8.520;2023-04-20T01:49:32;100390.38;;;9.51;53.32
28428;BME280;15662;49.128;8.520;2023-04-20T01:51:59;100398.31;;;9.49;53.25
28428;BME280;15662;49.128;8.520;2023-04-20T01:54:27;100404.59;;;9.44;53.05
28428;BME280;15662;49.128;8.520;2023-04-20T01:56:55;100396.94;;;9.32;53.36
28428;BME280;15662;49.128;8.520;2023-04-20T01:59:22;100405.69;;;9.34;53.51
28428;BME280;15662;49.128;8.520;2023-04-20T02:01:50;100394.34;;;9.28;53.21
28428;BME280;15662;49.128;8.520;2023-04-20T02:04:19;100391.78;;;9.24;53.42
28428;BME280;15662;49.128;8.520;2023-04-20T02:06:47;100391.81;;;9.22;53.39
28428;BME280;15662;49.128;8.520;2023-04-20T02:09:15;100394.38;;;9.27;53.48
28428;BME280;15662;49.128;8.520;2023-04-20T02:11:43;100394.38;;;9.27;53.48
28428;BME280;15662;49.128;8.520;2023-04-20T02:14:11;100387.38;;;9.24;53.11
28428;BME280;15662;49.128;8.520;2023-04-20T02:16:39;100394.47;;;9.21;53.30
28428;BME280;15662;49.128;8.520;2023-04-20T02:19:08;100380.47;;;9.16;53.43
28428;BME280;15662;49.128;8.520;2023-04-20T02:21:36;100388.50;;;9.13;53.32
28428;BME280;15662;49.128;8.520;2023-04-20T02:24:04;100387.66;;;9.09;53.31
28428;BME280;15662;49.128;8.520;2023-04-20T02:26:32;100384.19;;;9.05;53.24
28428;BME280;15662;49.128;8.520;2023-04-20T02:29:00;100378.13;;;9.00;53.44
28428;BME280;15662;49.128;8.520;2023-04-20T02:31:28;100377.34;;;8.95;53.36
28428;BME280;15662;49.128;8.520;2023-04-20T02:33:56;100367.78;;;8.90;53.52
28428;BME280;15662;49.128;8.520;2023-04-20T02:36:26;100368.78;;;8.83;53.74
28428;BME280;15662;49.128;8.520;2023-04-20T02:38:54;100342.47;;;8.76;53.40
28428;BME280;15662;49.128;8.520;2023-04-20T02:41:22;100361.78;;;8.80;53.30
28428;BME280;15662;49.128;8.520;2023-04-20T02:43:50;100363.59;;;8.76;53.34
28428;BME280;15662;49.128;8.520;2023-04-20T02:46:19;100352.28;;;8.70;53.79
28428;BME280;15662;49.128;8.520;2023-04-20T02:48:48;100354.94;;;8.70;53.84
28428;BME280;15662;49.128;8.520;2023-04-20T02:51:16;100352.31;;;8.67;53.81
28428;BME280;15662;49.128;8.520;2023-04-20T02:53:45;100350.63;;;8.64;53.98
28428;BME280;15662;49.128;8.520;2023-04-20T02:56:19;100348.72;;;8.71;53.61
28428;BME280;15662;49.128;8.520;2023-04-20T02:58:53;100346.06;;;8.74;54.07
28428;BME280;15662;49.128;8.520;2023-04-20T03:01:26;100338.94;;;8.77;53.63
28428;BME280;15662;49.128;8.520;2023-04-20T03:04:02;100341.50;;;8.82;54.15
28428;BME280;15662;49.128;8.520;2023-04-20T03:06:35;100340.41;;;8.92;54.12
28428;BME280;15662;49.128;8.520;2023-04-20T03:09:06;100347.28;;;9.01;54.27
28428;BME280;15662;49.128;8.520;2023-04-20T03:11:54;100335.78;;;9.03;53.71
28428;BME280;15662;49.128;8.520;2023-04-20T03:14:38;100333.88;;;9.10;53.68
28428;BME280;15662;49.128;8.520;2023-04-20T03:17:06;100338.94;;;9.21;53.54
28428;BME280;15662;49.128;8.520;2023-04-20T03:19:34;100327.38;;;9.26;53.42
28428;BME280;15662;49.128;8.520;2023-04-20T03:22:04;100338.56;;;9.39;53.37
28428;BME280;15662;49.128;8.520;2023-04-20T03:24:33;100332.25;;;9.45;53.66
28428;BME280;15662;49.128;8.520;2023-04-20T03:27:09;100323.38;;;9.49;53.30
28428;BME280;15662;49.128;8.520;2023-04-20T03:29:52;100315.38;;;9.52;53.51
28428;BME280;15662;49.128;8.520;2023-04-20T03:32:22;100327.53;;;9.61;53.14
28428;BME280;15662;49.128;8.520;2023-04-20T03:34:49;100316.81;;;9.65;53.21
28428;BME280;15662;49.128;8.520;2023-04-20T03:37:17;100320.28;;;9.69;52.97
28428;BME280;15662;49.128;8.520;2023-04-20T03:39:47;100308.88;;;9.65;52.89
28428;BME280;15662;49.128;8.520;2023-04-20T03:42:14;100303.59;;;9.65;52.56
28428;BME280;15662;49.128;8.520;2023-04-20T03:44:42;100308.78;;;9.70;52.52
28428;BME280;15662;49.128;8.520;2023-04-20T03:47:10;100307.03;;;9.69;52.83
28428;BME280;15662;49.128;8.520;2023-04-20T03:49:39;100306.09;;;9.71;52.47
28428;BME280;15662;49.128;8.520;2023-04-20T03:52:07;100301.78;;;9.67;52.51
28428;BME280;15662;49.128;8.520;2023-04-20T03:54:35;100301.69;;;9.70;52.26
28428;BME280;15662;49.128;8.520;2023-04-20T03:57:03;100299.19;;;9.66;52.32
28428;BME280;15662;49.128;8.520;2023-04-20T03:59:31;100307.94;;;9.68;52.48
28428;BME280;15662;49.128;8.520;2023-04-20T04:02:01;100305.34;;;9.65;52.18
28428;BME280;15662;49.128;8.520;2023-04-20T04:04:29;100307.25;;;9.60;52.57
28428;BME280;15662;49.128;8.520;2023-04-20T04:06:58;100309.13;;;9.54;52.16
28428;BME280;15662;49.128;8.520;2023-04-20T04:09:26;100317.16;;;9.50;52.12
28428;BME280;15662;49.128;8.520;2023-04-20T04:11:54;100317.31;;;9.44;52.31
28428;BME280;15662;49.128;8.520;2023-04-20T04:14:23;100312.88;;;9.44;52.55
28428;BME280;15662;49.128;8.520;2023-04-20T04:16:52;100311.09;;;9.45;52.86
28428;BME280;15662;49.128;8.520;2023-04-20T04:19:21;100309.31;;;9.45;53.06
28428;BME280;15662;49.128;8.520;2023-04-20T04:21:49;100314.50;;;9.51;53.28
28428;BME280;15662;49.128;8.520;2023-04-20T04:24:17;100317.00;;;9.57;53.18
28428;BME280;15662;49.128;8.520;2023-04-20T04:27:06;100309.09;;;9.56;53.25
28428;BME280;15662;49.128;8.520;2023-04-20T04:29:39;100308.09;;;9.62;53.19
28428;BME280;15662;49.128;8.520;2023-04-20T04:32:12;100308.06;;;9.63;53.47
28428;BME280;15662;49.128;8.520;2023-04-20T04:34:40;100303.66;;;9.62;53.09
28428;BME280;15662;49.128;8.520;2023-04-20T04:37:11;100306.31;;;9.62;53.55
28428;BME280;15662;49.128;8.520;2023-04-20T04:39:44;100307.28;;;9.58;53.56
28428;BME280;15662;49.128;8.520;2023-04-20T04:42:19;100309.88;;;9.61;53.46
28428;BME280;15662;49.128;8.520;2023-04-20T04:44:48;100297.50;;;9.62;53.58
28428;BME280;15662;49.128;8.520;2023-04-20T04:47:25;100309.00;;;9.61;53.59
28428;BME280;15662;49.128;8.520;2023-04-20T04:49:56;100304.59;;;9.60;53.64
28428;BME280;15662;49.128;8.520;2023-04-20T04:52:24;100308.09;;;9.60;53.70
28428;BME280;15662;49.128;8.520;2023-04-20T04:54:52;100301.03;;;9.62;53.72
28428;BME280;15662;49.128;8.520;2023-04-20T04:57:19;100301.88;;;9.63;53.90
28428;BME280;15662;49.128;8.520;2023-04-20T04:59:49;100302.66;;;9.68;53.92
28428;BME280;15662;49.128;8.520;2023-04-20T05:02:17;100304.34;;;9.70;54.03
28428;BME280;15662;49.128;8.520;2023-04-20T05:04:45;100291.16;;;9.69;53.95
28428;BME280;15662;49.128;8.520;2023-04-20T05:07:13;100304.13;;;9.79;54.13
28428;BME280;15662;49.128;8.520;2023-04-20T05:09:41;100307.53;;;9.86;54.07
28428;BME280;15662;49.128;8.520;2023-04-20T05:12:09;100307.31;;;9.94;53.78
28428;BME280;15662;49.128;8.520;2023-04-20T05:14:37;100301.00;;;10.01;53.78
28428;BME280;15662;49.128;8.520;2023-04-20T05:17:07;100300.88;;;10.05;53.76
28428;BME280;15662;49.128;8.520;2023-04-20T05:19:34;100305.09;;;10.13;53.55
28428;BME280;15662;49.128;8.520;2023-04-20T05:22:02;100297.97;;;10.16;53.36
28428;BME280;15662;49.128;8.520;2023-04-20T05:24:30;100300.63;;;10.15;53.10
28428;BME280;15662;49.128;8.520;2023-04-20T05:26:58;100300.56;;;10.18;53.48
28428;BME280;15662;49.128;8.520;2023-04-20T05:29:26;100310.13;;;10.23;53.53
28428;BME280;15662;49.128;8.520;2023-04-20T05:31:55;100311.78;;;10.29;53.36
28428;BME280;15662;49.128;8.520;2023-04-20T05:34:22;100294.94;;;10.31;53.36
28428;BME280;15662;49.128;8.520;2023-04-20T05:36:51;100297.38;;;10.39;53.24
28428;BME280;15662;49.128;8.520;2023-04-20T05:39:19;100307.97;;;10.41;52.83
28428;BME280;15662;49.128;8.520;2023-04-20T05:41:47;100311.47;;;10.41;52.98
28428;BME280;15662;49.128;8.520;2023-04-20T05:44:15;100307.88;;;10.44;53.01
28428;BME280;15662;49.128;8.520;2023-04-20T05:46:43;100312.22;;;10.46;52.68
28428;BME280;15662;49.128;8.520;2023-04-20T05:49:12;100326.28;;;10.50;52.61
28428;BME280;15662;49.128;8.520;2023-04-20T05:51:40;100323.63;;;10.50;52.80
28428;BME280;15662;49.128;8.520;2023-04-20T05:54:09;100318.28;;;10.51;52.52
28428;BME280;15662;49.128;8.520;2023-04-20T05:56:37;100322.66;;;10.52;52.26
28428;BME280;15662;49.128;8.520;2023-04-20T05:59:05;100319.22;;;10.49;52.32
28428;BME280;15662;49.128;8.520;2023-04-20T06:01:33;100328.19;;;10.45;52.15
28428;BME280;15662;49.128;8.520;2023-04-20T06:04:02;100323.75;;;10.45;52.20
28428;BME280;15662;49.128;8.520;2023-04-20T06:06:30;100326.41;;;10.44;51.87
28428;BME280;15662;49.128;8.520;2023-04-20T06:08:58;100328.94;;;10.48;52.18
28428;BME280;15662;49.128;8.520;2023-04-20T06:11:26;100321.84;;;10.49;52.19
28428;BME280;15662;49.128;8.520;2023-04-20T06:13:53;100324.50;;;10.50;52.14
28428;BME280;15662;49.128;8.520;2023-04-20T06:16:22;100331.47;;;10.54;52.39
28428;BME280;15662;49.128;8.520;2023-04-20T06:18:50;100322.53;;;10.57;52.08
28428;BME280;15662;49.128;8.520;2023-04-20T06:21:17;100317.19;;;10.58;52.25
28428;BME280;15662;49.128;8.520;2023-04-20T06:23:46;100324.94;;;10.66;52.24
28428;BME280;15662;49.128;8.520;2023-04-20T06:26:14;100315.09;;;10.71;52.30
28428;BME280;15662;49.128;8.520;2023-04-20T06:28:42;100317.63;;;10.76;52.51
28428;BME280;15662;49.128;8.520;2023-04-20T06:31:09;100303.41;;;10.78;52.74
28428;BME280;15662;49.128;8.520;2023-04-20T06:33:40;100318.00;;;10.93;53.17
28428;BME280;15662;49.128;8.520;2023-04-20T06:36:12;100309.78;;;11.02;53.28
28428;BME280;15662;49.128;8.520;2023-04-20T06:38:40;100309.59;;;11.10;53.70
28428;BME280;15662;49.128;8.520;2023-04-20T06:41:09;100310.09;;;11.23;53.83
28428;BME280;15662;49.128;8.520;2023-04-20T06:43:37;100307.13;;;11.33;53.65
28428;BME280;15662;49.128;8.520;2023-04-20T06:46:05;100306.91;;;11.41;53.78
28428;BME280;15662;49.128;8.520;2023-04-20T06:48:34;100299.59;;;11.49;53.87
28428;BME280;15662;49.128;8.520;2023-04-20T06:51:03;100307.16;;;11.61;53.72
28428;BME280;15662;49.128;8.520;2023-04-20T06:53:31;100300.84;;;11.66;53.47
28428;BME280;15662;49.128;8.520;2023-04-20T06:56:00;100294.53;;;11.70;53.83
28428;BME280;15662;49.128;8.520;2023-04-20T06:58:28;100301.97;;;11.86;53.72
28428;BME280;15662;49.128;8.520;2023-04-20T07:00:56;100309.56;;;11.99;53.61
28428;BME280;15662;49.128;8.520;2023-04-20T07:03:24;100305.91;;;12.01;53.14
28428;BME280;15662;49.128;8.520;2023-04-20T07:05:52;100297.78;;;12.07;52.90
28428;BME280;15662;49.128;8.520;2023-04-20T07:08:23;100293.31;;;12.08;52.82
28428;BME280;15662;49.128;8.520;2023-04-20T07:10:50;100296.56;;;12.16;52.77
28428;BME280;15662;49.128;8.520;2023-04-20T07:13:19;100295.47;;;12.23;52.45
28428;BME280;15662;49.128;8.520;2023-04-20T07:15:46;100293.56;;;12.27;52.23
28428;BME280;15662;49.128;8.520;2023-04-20T07:18:16;100282.88;;;12.28;52.06
28428;BME280;15662;49.128;8.520;2023-04-20T07:20:44;100290.72;;;12.31;51.62
28428;BME280;15662;49.128;8.520;2023-04-20T07:23:11;100275.78;;;12.29;51.41
28428;BME280;15662;49.128;8.520;2023-04-20T07:25:39;100281.09;;;12.29;51.46
28428;BME280;15662;49.128;8.520;2023-04-20T07:28:07;100282.81;;;12.30;51.35
28428;BME280;15662;49.128;8.520;2023-04-20T07:30:35;100287.22;;;12.31;51.35
28428;BME280;15662;49.128;8.520;2023-04-20T07:33:03;100287.91;;;12.36;51.41
28428;BME280;15662;49.128;8.520;2023-04-20T07:35:31;100278.00;;;12.41;51.88
28428;BME280;15662;49.128;8.520;2023-04-20T07:37:59;100269.78;;;12.49;51.67
28428;BME280;15662;49.128;8.520;2023-04-20T07:40:27;100272.09;;;12.58;51.48
28428;BME280;15662;49.128;8.520;2023-04-20T07:43:01;100264.78;;;12.64;51.68
28428;BME280;15662;49.128;8.520;2023-04-20T07:45:30;100274.00;;;12.79;51.87
28428;BME280;15662;49.128;8.520;2023-04-20T07:48:04;100278.00;;;12.91;51.63
28428;BME280;15662;49.128;8.520;2023-04-20T07:50:32;100281.19;;;13.01;51.83
28428;BME280;15662;49.128;8.520;2023-04-20T07:53:00;100273.59;;;13.13;51.89
28428;BME280;15662;49.128;8.520;2023-04-20T07:55:28;100274.91;;;13.27;51.90
28428;BME280;15662;49.128;8.520;2023-04-20T07:57:57;100270.63;;;13.46;51.94
28428;BME280;15662;49.128;8.520;2023-04-20T08:00:25;100258.34;;;13.64;52.04
28428;BME280;15662;49.128;8.520;2023-04-20T08:02:57;100263.03;;;13.81;51.95
28428;BME280;15662;49.128;8.520;2023-04-20T08:05:25;100263.19;;;13.98;51.91
28428;BME280;15662;49.128;8.520;2023-04-20T08:08:00;100258.34;;;14.08;51.33
28428;BME280;15662;49.128;8.520;2023-04-20T08:10:28;100261.34;;;14.20;51.48
28428;BME280;15662;49.128;8.520;2023-04-20T08:12:56;100251.44;;;14.24;50.98
28428;BME280;15662;49.128;8.520;2023-04-20T08:15:24;100251.16;;;14.30;50.70
28428;BME280;15662;49.128;8.520;2023-04-20T08:17:53;100244.78;;;14.34;50.64
28428;BME280;15662;49.128;8.520;2023-04-20T08:20:22;100239.25;;;14.39;50.81
28428;BME280;15662;49.128;8.520;2023-04-20T08:22:51;100245.28;;;14.42;50.31
28428;BME280;15662;49.128;8.520;2023-04-20T08:25:21;100241.72;;;14.43;49.87
28428;BME280;15662;49.128;8.520;2023-04-20T08:27:53;100240.91;;;14.41;49.48
28428;BME280;15662;49.128;8.520;2023-04-20T08:30:25;100228.50;;;14.40;49.29
28428;BME280;15662;49.128;8.520;2023-04-20T08:32:53;100237.38;;;14.41;49.31
28428;BME280;15662;49.128;8.520;2023-04-20T08:35:21;100229.28;;;14.42;49.35
28428;BME280;15662;49.128;8.520;2023-04-20T08:37:49;100222.22;;;14.41;49.01
28428;BME280;15662;49.128;8.520;2023-04-20T08:40:17;100222.22;;;14.41;49.14
28428;BME280;15662;49.128;8.520;2023-04-20T08:42:46;100219.44;;;14.44;49.07
28428;BME280;15662;49.128;8.520;2023-04-20T08:45:14;100223.59;;;14.52;49.21
28428;BME280;15662;49.128;8.520;2023-04-20T08:47:42;100216.53;;;14.51;48.72
28428;BME280;15662;49.128;8.520;2023-04-20T08:50:15;100216.41;;;14.54;48.53
28428;BME280;15662;49.128;8.520;2023-04-20T08:52:43;100217.13;;;14.57;48.86
28428;BME280;15662;49.128;8.520;2023-04-20T08:55:15;100212.25;;;14.67;48.80
28428;BME280;15662;49.128;8.520;2023-04-20T08:57:43;100206.84;;;14.68;48.93
28428;BME280;15662;49.128;8.520;2023-04-20T09:00:13;100228.66;;;14.78;48.55
28428;BME280;15662;49.128;8.520;2023-04-20T09:05:25;100203.31;;;14.87;48.22
28428;BME280;15662;49.128;8.520;2023-04-20T09:07:57;100205.00;;;14.89;48.19
28428;BME280;15662;49.128;8.520;2023-04-20T09:10:41;100207.16;;;15.00;47.72
28428;BME280;15662;49.128;8.520;2023-04-20T09:13:21;100206.09;;;15.04;47.84
28428;BME280;15662;49.128;8.520;2023-04-20T09:15:49;100207.53;;;15.11;48.11
28428;BME280;15662;49.128;8.520;2023-04-20T09:18:18;100212.34;;;15.22;47.83
28428;BME280;15662;49.128;8.520;2023-04-20T09:20:52;100193.53;;;15.25;47.40
28428;BME280;15662;49.128;8.520;2023-04-20T09:23:23;100189.78;;;15.29;47.90
28428;BME280;15662;49.128;8.520;2023-04-20T09:25:51;100199.16;;;15.38;47.02
28428;BME280;15662;49.128;8.520;2023-04-20T09:28:19;100185.50;;;15.44;46.51
28428;BME280;15662;49.128;8.520;2023-04-20T09:30:48;100200.22;;;15.53;46.81
28428;BME280;15662;49.128;8.520;2023-04-20T09:33:18;100188.13;;;15.63;46.14
28428;BME280;15662;49.128;8.520;2023-04-20T09:35:46;100194.94;;;15.70;46.10
28428;BME280;15662;49.128;8.520;2023-04-20T09:38:24;100183.00;;;15.77;46.16
28428;BME280;15662;49.128;8.520;2023-04-20T09:40:54;100187.25;;;15.81;46.25
28428;BME280;15662;49.128;8.520;2023-04-20T09:43:23;100187.59;;;15.92;45.92
28428;BME280;15662;49.128;8.520;2023-04-20T09:45:54;100183.81;;;15.96;45.70
28428;BME280;15662;49.128;8.520;2023-04-20T09:48:26;100177.09;;;16.05;45.72
28428;BME280;15662;49.128;8.520;2023-04-20T09:51:01;100167.03;;;16.10;45.25
28428;BME280;15662;49.128;8.520;2023-04-20T09:53:30;100163.03;;;16.19;45.40
28428;BME280;15662;49.128;8.520;2023-04-20T09:56:04;100176.97;;;16.25;45.06
28428;BME280;15662;49.128;8.520;2023-04-20T09:58:34;100164.59;;;16.23;45.05
28428;BME280;15662;49.128;8.520;2023-04-20T10:01:09;100169.25;;;16.37;45.30
28428;BME280;15662;49.128;8.520;2023-04-20T10:03:41;100169.25;;;16.37;44.50
28428;BME280;15662;49.128;8.520;2023-04-20T10:06:33;100154.81;;;16.39;44.62
28428;BME280;15662;49.128;8.520;2023-04-20T10:09:06;100165.28;;;16.44;45.37
28428;BME280;15662;49.128;8.520;2023-04-20T10:11:39;100157.00;;;16.48;44.95
28428;BME280;15662;49.128;8.520;2023-04-20T10:14:23;100161.78;;;16.59;45.43
28428;BME280;15662;49.128;8.520;2023-04-20T10:17:07;100154.00;;;16.72;44.56
28428;BME280;15662;49.128;8.520;2023-04-20T10:19:44;100144.00;;;16.75;44.15
28428;BME280;15662;49.128;8.520;2023-04-20T10:22:29;100146.44;;;16.80;44.26
28428;BME280;15662;49.128;8.520;2023-04-20T10:25:13;100152.53;;;16.82;44.31
28428;BME280;15662;49.128;8.520;2023-04-20T10:27:58;100148.56;;;16.89;43.96
28428;BME280;15662;49.128;8.520;2023-04-20T10:30:29;100144.88;;;16.92;43.79
28428;BME280;15662;49.128;8.520;2023-04-20T10:38:33;100149.53;;;17.04;43.27
28428;BME280;15662;49.128;8.520;2023-04-20T10:41:10;100138.81;;;17.04;42.87
28428;BME280;15662;49.128;8.520;2023-04-20T10:43:40;100135.03;;;16.92;42.84
28428;BME280;15662;49.128;8.520;2023-04-20T10:46:20;100146.59;;;16.93;42.42
28428;BME280;15662;49.128;8.520;2023-04-20T10:51:18;100144.91;;;16.74;42.64
28428;BME280;15662;49.128;8.520;2023-04-20T10:54:06;100145.66;;;16.61;42.93
28428;BME280;15662;49.128;8.520;2023-04-20T10:56:41;100135.50;;;16.50;43.43
28428;BME280;15662;49.128;8.520;2023-04-20T10:59:12;100141.81;;;16.49;43.79
28428;BME280;15662;49.128;8.520;2023-04-20T11:01:43;100134.75;;;16.48;44.34
28428;BME280;15662;49.128;8.520;2023-04-20T11:04:12;100126.47;;;16.52;44.53
28428;BME280;15662;49.128;8.520;2023-04-20T11:06:45;100118.91;;;16.61;44.84
28428;BME280;15662;49.128;8.520;2023-04-20T11:09:20;100113.84;;;16.72;44.97
28428;BME280;15662;49.128;8.520;2023-04-20T11:12:04;100113.34;;;16.81;44.57
28428;BME280;15662;49.128;8.520;2023-04-20T11:14:36;100111.88;;;16.91;44.73
28428;BME280;15662;49.128;8.520;2023-04-20T11:17:06;100101.94;;;16.93;44.29
28428;BME280;15662;49.128;8.520;2023-04-20T11:19:36;100102.88;;;17.08;44.60
28428;BME280;15662;49.128;8.520;2023-04-20T11:22:05;100104.09;;;17.18;44.25
28428;BME280;15662;49.128;8.520;2023-04-20T11:24:34;100104.53;;;17.26;43.93
28428;BME280;15662;49.128;8.520;2023-04-20T11:27:05;100098.19;;;17.27;43.53
28428;BME280;15662;49.128;8.520;2023-04-20T11:29:37;100096.22;;;17.31;43.59
28428;BME280;15662;49.128;8.520;2023-04-20T11:32:11;100091.63;;;17.33;43.57
28428;BME280;15662;49.128;8.520;2023-04-20T11:34:39;100085.13;;;17.37;43.57
28428;BME280;15662;49.128;8.520;2023-04-20T11:37:10;100082.03;;;17.45;42.89
28428;BME280;15662;49.128;8.520;2023-04-20T11:39:40;100096.38;;;17.44;42.84
28428;BME280;15662;49.128;8.520;2023-04-20T11:42:08;100088.34;;;17.44;42.42
28428;BME280;15662;49.128;8.520;2023-04-20T11:44:37;100087.19;;;17.48;42.35
28428;BME280;15662;49.128;8.520;2023-04-20T11:47:09;100098.03;;;17.31;42.67
28428;BME280;15662;49.128;8.520;2023-04-20T11:49:42;100100.09;;;17.41;42.98
28428;BME280;15662;49.128;8.520;2023-04-20T11:52:10;100094.72;;;17.41;42.18
28428;BME280;15662;49.128;8.520;2023-04-20T11:54:38;100096.44;;;17.42;41.72
28428;BME280;15662;49.128;8.520;2023-04-20T11:57:07;100087.31;;;17.31;41.82
28428;BME280;15662;49.128;8.520;2023-04-20T11:59:36;100096.50;;;17.26;41.51
28428;BME280;15662;49.128;8.520;2023-04-20T12:02:06;100092.25;;;17.22;41.64
28428;BME280;15662;49.128;8.520;2023-04-20T12:04:34;100100.38;;;17.21;41.56
28428;BME280;15662;49.128;8.520;2023-04-20T12:07:02;100092.34;;;17.21;41.54
28428;BME280;15662;49.128;8.520;2023-04-20T12:09:30;100091.16;;;17.11;40.90
28428;BME280;15662;49.128;8.520;2023-04-20T12:12:05;100086.41;;;17.00;40.99
28428;BME280;15662;49.128;8.520;2023-04-20T12:14:33;100078.81;;;16.92;41.30
28428;BME280;15662;49.128;8.520;2023-04-20T12:17:03;100090.81;;;17.01;41.68
28428;BME280;15662;49.128;8.520;2023-04-20T12:19:33;100094.84;;;17.08;41.69
28428;BME280;15662;49.128;8.520;2023-04-20T12:22:02;100087.69;;;17.09;41.30
28428;BME280;15662;49.128;8.520;2023-04-20T12:24:34;100099.19;;;17.11;41.59
28428;BME280;15662;49.128;8.520;2023-04-20T12:27:02;100094.53;;;17.14;41.37
28428;BME280;15662;49.128;8.520;2023-04-20T12:29:30;100095.88;;;17.21;41.32
28428;BME280;15662;49.128;8.520;2023-04-20T12:32:03;100085.00;;;17.24;41.51
28428;BME280;15662;49.128;8.520;2023-04-20T12:34:31;100085.88;;;17.25;41.37
28428;BME280;15662;49.128;8.520;2023-04-20T12:36:58;100086.63;;;17.27;41.40
28428;BME280;15662;49.128;8.520;2023-04-20T12:39:27;100085.59;;;17.30;40.98
28428;BME280;15662;49.128;8.520;2023-04-20T12:41:56;100083.34;;;17.22;40.51
28428;BME280;15662;49.128;8.520;2023-04-20T12:44:24;100098.81;;;17.17;40.41
28428;BME280;15662;49.128;8.520;2023-04-20T12:46:52;100094.09;;;17.06;40.22
28428;BME280;15662;49.128;8.520;2023-04-20T12:49:22;100089.75;;;16.88;39.88
28428;BME280;15662;49.128;8.520;2023-04-20T12:51:49;100098.50;;;16.75;40.72
28428;BME280;15662;49.128;8.520;2023-04-20T12:54:17;100109.25;;;16.74;40.42
28428;BME280;15662;49.128;8.520;2023-04-20T12:56:46;100103.63;;;16.63;40.90
28428;BME280;15662;49.128;8.520;2023-04-20T12:59:14;100109.47;;;16.54;40.90
28428;BME280;15662;49.128;8.520;2023-04-20T13:01:49;100104.56;;;16.46;41.31
28428;BME280;15662;49.128;8.520;2023-04-20T13:04:17;100119.91;;;16.42;41.20
28428;BME280;15662;49.128;8.520;2023-04-20T13:06:45;100107.97;;;16.32;41.16
28428;BME280;15662;49.128;8.520;2023-04-20T13:09:15;100115.94;;;16.16;41.58
28428;BME280;15662;49.128;8.520;2023-04-20T13:11:43;100117.28;;;16.08;42.10
28428;BME280;15662;49.128;8.520;2023-04-20T13:14:11;100114.06;;;16.01;42.40
28428;BME280;15662;49.128;8.520;2023-04-20T13:16:39;100121.63;;;15.93;42.61